sensor_id;sensor_type;location;lat;lon;timestamp;P1;durP1;ratioP1;P2;durP2;ratioP2
17173;SDS011;8702;48.130;-1.696;2024-03-23T00:53:42;16.45;;;4.43;;
17173;SDS011;8702;48.130;-1.696;2024-03-23T00:56:08;14.35;;;4.30;;
17173;SDS011;8702;48.130;-1.696;2024-03-23T00:58:35;14.75;;;4.30;;
17173;SDS011;8702;48.130;-1.696;2024-03-23T01:01:00;18.17;;;4.57;;
17173;SDS011;8702;48.130;-1.696;2024-03-23T01:03:28;15.70;;;3.90;;
17173;SDS011;8702;48.130;-1.696;2024-03-23T01:05:54;16.47;;;4.50;;
17173;SDS011;8702;48.130;-1.696;2024-03-23T01:08:24;15.77;;;3.90;;
17173;SDS011;8702;48.130;-1.696;2024-03-23T01:10:55;15.70;;;4.25;;
17173;SDS011;8702;48.130;-1.696;2024-03-23T01:13:22;14.30;;;3.88;;
17173;SDS011;8702;48.130;-1.696;2024-03-23T01:15:48;17.38;;;4.22;;
17173;SDS011;8702;48.130;-1.696;2024-03-23T01:18:16;17.52;;;4.43;;
17173;SDS011;8702;48.130;-1.696;2024-03-23T01:20:42;16.92;;;4.03;;
17173;SDS011;8702;48.130;-1.696;2024-03-23T01:23:10;15.20;;;4.13;;
17173;SDS011;8702;48.130;-1.696;2024-03-23T01:25:36;20.52;;;4.70;;
17173;SDS011;8702;48.130;-1.696;2024-03-23T01:28:04;18.75;;;4.57;;
17173;SDS011;8702;48.130;-1.696;2024-03-23T01:30:31;15.80;;;3.72;;
17173;SDS011;8702;48.130;-1.696;2024-03-23T01:32:58;15.07;;;4.05;;
17173;SDS011;8702;48.130;-1.696;2024-03-23T01:35:24;16.52;;;4.25;;
17173;SDS011;8702;48.130;-1.696;2024-03-23T01:37:51;16.23;;;4.03;;
17173;SDS011;8702;48.130;-1.696;2024-03-23T01:40:17;16.77;;;3.92;;
17173;SDS011;8702;48.130;-1.696;2024-03-23T01:42:54;15.52;;;3.90;;
17173;SDS011;8702;48.130;-1.696;2024-03-23T01:45:22;15.50;;;3.80;;
17173;SDS011;8702;48.130;-1.696;2024-03-23T01:47:49;16.95;;;4.40;;
17173;SDS011;8702;48.130;-1.696;2024-03-23T01:50:15;14.20;;;4.10;;
17173;SDS011;8702;48.130;-1.696;2024-03-23T01:52:43;16.98;;;3.97;;
17173;SDS011;8702;48.130;-1.696;2024-03-23T01:55:09;15.18;;;3.78;;
17173;SDS011;8702;48.130;-1.696;2024-03-23T01:57:36;14.50;;;3.67;;
17173;SDS011;8702;48.130;-1.696;2024-03-23T02:00:02;17.48;;;4.07;;
17173;SDS011;8702;48.130;-1.696;2024-03-23T02:02:31;16.47;;;4.17;;
17173;SDS011;8702;48.130;-1.696;2024-03-23T02:04:57;14.73;;;3.83;;
17173;SDS011;8702;48.130;-1.696;2024-03-23T02:07:24;15.80;;;3.83;;
17173;SDS011;8702;48.130;-1.696;2024-03-23T02:09:50;14.38;;;3.70;;
17173;SDS011;8702;48.130;-1.696;2024-03-23T02:12:17;15.47;;;4.30;;
17173;SDS011;8702;48.130;-1.696;2024-03-23T02:14:43;15.52;;;3.50;;
17173;SDS011;8702;48.130;-1.696;2024-03-23T02:17:10;16.75;;;4.05;;
17173;SDS011;8702;48.130;-1.696;2024-03-23T02:19:37;16.38;;;3.85;;
17173;SDS011;8702;48.130;-1.696;2024-03-23T02:22:04;12.68;;;3.55;;
17173;SDS011;8702;48.130;-1.696;2024-03-23T02:24:32;15.67;;;4.10;;
17173;SDS011;8702;48.130;-1.696;2024-03-23T02:26:59;15.50;;;3.70;;
17173;SDS011;8702;48.130;-1.696;2024-03-23T02:29:25;13.37;;;3.60;;
17173;SDS011;8702;48.130;-1.696;2024-03-23T02:31:52;16.67;;;4.03;;
17173;SDS011;8702;48.130;-1.696;2024-03-23T02:34:17;15.40;;;3.60;;
17173;SDS011;8702;48.130;-1.696;2024-03-23T02:36:44;16.00;;;3.92;;
17173;SDS011;8702;48.130;-1.696;2024-03-23T02:39:10;18.03;;;4.10;;
17173;SDS011;8702;48.130;-1.696;2024-03-23T02:41:38;14.73;;;3.67;;
17173;SDS011;8702;48.130;-1.696;2024-03-23T02:44:04;12.10;;;3.35;;
17173;SDS011;8702;48.130;-1.696;2024-03-23T02:46:32;13.38;;;3.58;;
17173;SDS011;8702;48.130;-1.696;2024-03-23T02:48:57;17.20;;;3.85;;
17173;SDS011;8702;48.130;-1.696;2024-03-23T02:51:24;12.88;;;3.72;;
17173;SDS011;8702;48.130;-1.696;2024-03-23T02:53:50;14.82;;;3.60;;
17173;SDS011;8702;48.130;-1.696;2024-03-23T02:56:17;11.98;;;3.30;;
17173;SDS011;8702;48.130;-1.696;2024-03-23T02:58:45;13.23;;;3.53;;
17173;SDS011;8702;48.130;-1.696;2024-03-23T03:01:11;14.43;;;3.33;;
17173;SDS011;8702;48.130;-1.696;2024-03-23T03:03:38;12.68;;;3.45;;
17173;SDS011;8702;48.130;-1.696;2024-03-23T03:06:04;11.90;;;2.92;;
17173;SDS011;8702;48.130;-1.696;2024-03-23T03:08:31;16.98;;;3.70;;
17173;SDS011;8702;48.130;-1.696;2024-03-23T03:10:56;14.73;;;3.38;;
17173;SDS011;8702;48.130;-1.696;2024-03-23T03:13:23;14.25;;;3.35;;
17173;SDS011;8702;48.130;-1.696;2024-03-23T03:15:50;16.35;;;3.67;;
17173;SDS011;8702;48.130;-1.696;2024-03-23T03:18:18;14.75;;;3.58;;
17173;SDS011;8702;48.130;-1.696;2024-03-23T03:20:44;11.10;;;3.63;;
17173;SDS011;8702;48.130;-1.696;2024-03-23T03:23:11;12.73;;;3.58;;
17173;SDS011;8702;48.130;-1.696;2024-03-23T03:25:37;13.95;;;3.67;;
17173;SDS011;8702;48.130;-1.696;2024-03-23T03:28:04;15.00;;;3.40;;
17173;SDS011;8702;48.130;-1.696;2024-03-23T03:30:31;12.70;;;3.30;;
17173;SDS011;8702;48.130;-1.696;2024-03-23T03:32:59;15.45;;;3.50;;
17173;SDS011;8702;48.130;-1.696;2024-03-23T03:35:25;12.97;;;3.27;;
17173;SDS011;8702;48.130;-1.696;2024-03-23T03:37:51;10.98;;;2.97;;
17173;SDS011;8702;48.130;-1.696;2024-03-23T03:40:17;15.52;;;3.53;;
17173;SDS011;8702;48.130;-1.696;2024-03-23T03:42:44;12.18;;;3.30;;
17173;SDS011;8702;48.130;-1.696;2024-03-23T03:45:10;12.13;;;3.10;;
17173;SDS011;8702;48.130;-1.696;2024-03-23T03:47:37;11.18;;;3.20;;
17173;SDS011;8702;48.130;-1.696;2024-03-23T03:50:04;14.52;;;3.38;;
17173;SDS011;8702;48.130;-1.696;2024-03-23T03:52:32;11.00;;;3.08;;
17173;SDS011;8702;48.130;-1.696;2024-03-23T03:55:00;10.83;;;3.20;;
17173;SDS011;8702;48.130;-1.696;2024-03-23T03:57:28;13.00;;;3.00;;
17173;SDS011;8702;48.130;-1.696;2024-03-23T03:59:54;15.55;;;3.25;;
17173;SDS011;8702;48.130;-1.696;2024-03-23T04:02:21;12.73;;;3.40;;
17173;SDS011;8702;48.130;-1.696;2024-03-23T04:04:47;9.82;;;2.78;;
17173;SDS011;8702;48.130;-1.696;2024-03-23T04:07:15;13.02;;;3.00;;
17173;SDS011;8702;48.130;-1.696;2024-03-23T04:09:42;12.95;;;2.95;;
17173;SDS011;8702;48.130;-1.696;2024-03-23T04:12:09;9.57;;;2.53;;
17173;SDS011;8702;48.130;-1.696;2024-03-23T04:14:35;9.98;;;2.70;;
17173;SDS011;8702;48.130;-1.696;2024-03-23T04:17:02;10.50;;;3.08;;
17173;SDS011;8702;48.130;-1.696;2024-03-23T04:19:28;11.48;;;3.30;;
17173;SDS011;8702;48.130;-1.696;2024-03-23T04:21:54;12.68;;;3.00;;
17173;SDS011;8702;48.130;-1.696;2024-03-23T04:24:21;10.23;;;2.90;;
17173;SDS011;8702;48.130;-1.696;2024-03-23T04:26:50;12.48;;;3.25;;
17173;SDS011;8702;48.130;-1.696;2024-03-23T04:29:15;14.20;;;3.05;;
17173;SDS011;8702;48.130;-1.696;2024-03-23T04:31:42;12.68;;;3.10;;
17173;SDS011;8702;48.130;-1.696;2024-03-23T04:34:08;12.73;;;3.63;;
17173;SDS011;8702;48.130;-1.696;2024-03-23T04:36:35;12.07;;;3.40;;
17173;SDS011;8702;48.130;-1.696;2024-03-23T04:39:01;10.50;;;2.95;;
17173;SDS011;8702;48.130;-1.696;2024-03-23T04:41:29;14.90;;;3.65;;
17173;SDS011;8702;48.130;-1.696;2024-03-23T04:43:56;11.30;;;3.10;;
17173;SDS011;8702;48.130;-1.696;2024-03-23T04:46:23;11.65;;;3.40;;
17173;SDS011;8702;48.130;-1.696;2024-03-23T04:48:50;10.88;;;3.38;;
17173;SDS011;8702;48.130;-1.696;2024-03-23T04:51:20;11.93;;;3.40;;
17173;SDS011;8702;48.130;-1.696;2024-03-23T04:53:47;12.93;;;3.20;;
17173;SDS011;8702;48.130;-1.696;2024-03-23T04:56:14;11.10;;;2.90;;
17173;SDS011;8702;48.130;-1.696;2024-03-23T04:58:43;13.18;;;3.20;;
17173;SDS011;8702;48.130;-1.696;2024-03-23T05:01:09;10.77;;;3.00;;
17173;SDS011;8702;48.130;-1.696;2024-03-23T05:03:37;11.30;;;3.08;;
17173;SDS011;8702;48.130;-1.696;2024-03-23T05:06:03;10.05;;;2.75;;
17173;SDS011;8702;48.130;-1.696;2024-03-23T05:08:30;11.68;;;2.92;;
17173;SDS011;8702;48.130;-1.696;2024-03-23T05:10:56;10.15;;;2.90;;
17173;SDS011;8702;48.130;-1.696;2024-03-23T05:13:23;9.90;;;2.92;;
17173;SDS011;8702;48.130;-1.696;2024-03-23T05:15:52;8.65;;;2.67;;
17173;SDS011;8702;48.130;-1.696;2024-03-23T05:18:19;10.52;;;2.70;;
17173;SDS011;8702;48.130;-1.696;2024-03-23T05:20:45;9.60;;;2.58;;
17173;SDS011;8702;48.130;-1.696;2024-03-23T05:23:12;7.95;;;2.42;;
17173;SDS011;8702;48.130;-1.696;2024-03-23T05:25:38;8.88;;;2.60;;
17173;SDS011;8702;48.130;-1.696;2024-03-23T05:28:05;9.05;;;2.38;;
17173;SDS011;8702;48.130;-1.696;2024-03-23T05:30:31;8.50;;;2.63;;
17173;SDS011;8702;48.130;-1.696;2024-03-23T05:32:59;8.88;;;2.53;;
17173;SDS011;8702;48.130;-1.696;2024-03-23T05:35:25;9.17;;;2.90;;
17173;SDS011;8702;48.130;-1.696;2024-03-23T05:37:52;10.13;;;2.80;;
17173;SDS011;8702;48.130;-1.696;2024-03-23T05:40:18;8.75;;;2.75;;
17173;SDS011;8702;48.130;-1.696;2024-03-23T05:42:45;8.30;;;2.58;;
17173;SDS011;8702;48.130;-1.696;2024-03-23T05:45:10;7.55;;;2.28;;
17173;SDS011;8702;48.130;-1.696;2024-03-23T05:47:37;8.68;;;2.47;;
17173;SDS011;8702;48.130;-1.696;2024-03-23T05:50:05;7.45;;;2.20;;
17173;SDS011;8702;48.130;-1.696;2024-03-23T05:52:34;10.20;;;2.20;;
17173;SDS011;8702;48.130;-1.696;2024-03-23T05:55:00;8.93;;;2.03;;
17173;SDS011;8702;48.130;-1.696;2024-03-23T05:57:27;8.90;;;2.72;;
17173;SDS011;8702;48.130;-1.696;2024-03-23T05:59:53;6.80;;;2.05;;
17173;SDS011;8702;48.130;-1.696;2024-03-23T06:02:20;9.73;;;2.20;;
17173;SDS011;8702;48.130;-1.696;2024-03-23T06:04:47;7.53;;;2.28;;
17173;SDS011;8702;48.130;-1.696;2024-03-23T06:07:15;6.55;;;2.33;;
17173;SDS011;8702;48.130;-1.696;2024-03-23T06:09:41;7.90;;;2.13;;
17173;SDS011;8702;48.130;-1.696;2024-03-23T06:12:08;7.05;;;2.20;;
17173;SDS011;8702;48.130;-1.696;2024-03-23T06:14:34;13.10;;;2.20;;
17173;SDS011;8702;48.130;-1.696;2024-03-23T06:17:01;8.23;;;2.35;;
17173;SDS011;8702;48.130;-1.696;2024-03-23T06:19:27;12.00;;;2.80;;
17173;SDS011;8702;48.130;-1.696;2024-03-23T06:21:54;8.68;;;2.22;;
17173;SDS011;8702;48.130;-1.696;2024-03-23T06:24:21;10.13;;;2.70;;
17173;SDS011;8702;48.130;-1.696;2024-03-23T06:26:49;13.35;;;2.60;;
17173;SDS011;8702;48.130;-1.696;2024-03-23T06:29:15;7.25;;;2.05;;
17173;SDS011;8702;48.130;-1.696;2024-03-23T06:31:42;8.25;;;2.40;;
17173;SDS011;8702;48.130;-1.696;2024-03-23T06:34:08;8.52;;;2.47;;
17173;SDS011;8702;48.130;-1.696;2024-03-23T06:36:34;8.45;;;2.60;;
17173;SDS011;8702;48.130;-1.696;2024-03-23T06:39:03;10.70;;;2.67;;
17173;SDS011;8702;48.130;-1.696;2024-03-23T06:41:31;7.55;;;2.60;;
17173;SDS011;8702;48.130;-1.696;2024-03-23T06:43:57;8.60;;;2.33;;
17173;SDS011;8702;48.130;-1.696;2024-03-23T06:46:24;8.70;;;2.40;;
17173;SDS011;8702;48.130;-1.696;2024-03-23T06:48:50;8.88;;;2.35;;
17173;SDS011;8702;48.130;-1.696;2024-03-23T06:51:17;7.57;;;2.60;;
17173;SDS011;8702;48.130;-1.696;2024-03-23T06:53:42;11.90;;;2.63;;
17173;SDS011;8702;48.130;-1.696;2024-03-23T06:56:09;7.07;;;2.33;;
17173;SDS011;8702;48.130;-1.696;2024-03-23T06:58:36;10.48;;;2.78;;
17173;SDS011;8702;48.130;-1.696;2024-03-23T07:01:03;12.27;;;2.80;;
17173;SDS011;8702;48.130;-1.696;2024-03-23T07:03:29;8.83;;;2.63;;
17173;SDS011;8702;48.130;-1.696;2024-03-23T07:05:57;9.27;;;2.58;;
17173;SDS011;8702;48.130;-1.696;2024-03-23T07:08:23;10.77;;;2.85;;
17173;SDS011;8702;48.130;-1.696;2024-03-23T07:10:50;7.10;;;2.17;;
17173;SDS011;8702;48.130;-1.696;2024-03-23T07:13:16;9.18;;;2.90;;
17173;SDS011;8702;48.130;-1.696;2024-03-23T07:15:44;8.10;;;2.57;;
17173;SDS011;8702;48.130;-1.696;2024-03-23T07:18:16;14.32;;;2.60;;
17173;SDS011;8702;48.130;-1.696;2024-03-23T07:20:51;7.47;;;2.30;;
17173;SDS011;8702;48.130;-1.696;2024-03-23T07:23:17;9.48;;;2.75;;
17173;SDS011;8702;48.130;-1.696;2024-03-23T07:25:44;12.70;;;2.75;;
17173;SDS011;8702;48.130;-1.696;2024-03-23T07:28:10;10.07;;;2.92;;
17173;SDS011;8702;48.130;-1.696;2024-03-23T07:30:37;8.15;;;2.45;;
17173;SDS011;8702;48.130;-1.696;2024-03-23T07:33:04;9.05;;;2.63;;
17173;SDS011;8702;48.130;-1.696;2024-03-23T07:35:31;8.77;;;2.90;;
17173;SDS011;8702;48.130;-1.696;2024-03-23T07:37:57;12.88;;;3.13;;
17173;SDS011;8702;48.130;-1.696;2024-03-23T07:40:30;9.70;;;2.85;;
17173;SDS011;8702;48.130;-1.696;2024-03-23T07:42:56;6.57;;;2.63;;
17173;SDS011;8702;48.130;-1.696;2024-03-23T07:45:23;11.45;;;2.92;;
17173;SDS011;8702;48.130;-1.696;2024-03-23T07:47:48;7.80;;;2.73;;
17173;SDS011;8702;48.130;-1.696;2024-03-23T07:50:17;13.97;;;3.70;;
17173;SDS011;8702;48.130;-1.696;2024-03-23T07:52:42;10.55;;;3.03;;
17173;SDS011;8702;48.130;-1.696;2024-03-23T07:55:09;10.25;;;2.60;;
17173;SDS011;8702;48.130;-1.696;2024-03-23T07:57:35;11.80;;;2.72;;
17173;SDS011;8702;48.130;-1.696;2024-03-23T08:00:02;10.88;;;3.05;;
17173;SDS011;8702;48.130;-1.696;2024-03-23T08:02:30;11.38;;;3.15;;
17173;SDS011;8702;48.130;-1.696;2024-03-23T08:04:56;10.88;;;3.00;;
17173;SDS011;8702;48.130;-1.696;2024-03-23T08:07:24;13.23;;;3.17;;
17173;SDS011;8702;48.130;-1.696;2024-03-23T08:09:50;10.52;;;3.00;;
17173;SDS011;8702;48.130;-1.696;2024-03-23T08:12:17;9.45;;;2.72;;
17173;SDS011;8702;48.130;-1.696;2024-03-23T08:14:43;11.20;;;2.70;;
17173;SDS011;8702;48.130;-1.696;2024-03-23T08:17:13;10.60;;;2.85;;
17173;SDS011;8702;48.130;-1.696;2024-03-23T08:19:38;12.63;;;3.20;;
17173;SDS011;8702;48.130;-1.696;2024-03-23T08:22:05;11.15;;;2.85;;
17173;SDS011;8702;48.130;-1.696;2024-03-23T08:24:34;11.13;;;2.80;;
17173;SDS011;8702;48.130;-1.696;2024-03-23T08:27:00;10.15;;;3.00;;
17173;SDS011;8702;48.130;-1.696;2024-03-23T08:29:26;12.00;;;3.15;;
17173;SDS011;8702;48.130;-1.696;2024-03-23T08:31:53;12.07;;;2.83;;
17173;SDS011;8702;48.130;-1.696;2024-03-23T08:34:19;11.43;;;3.13;;
17173;SDS011;8702;48.130;-1.696;2024-03-23T08:36:46;8.70;;;2.17;;
17173;SDS011;8702;48.130;-1.696;2024-03-23T08:39:12;11.53;;;2.60;;
17173;SDS011;8702;48.130;-1.696;2024-03-23T08:41:40;10.02;;;2.47;;
17173;SDS011;8702;48.130;-1.696;2024-03-23T08:44:08;8.38;;;2.65;;
17173;SDS011;8702;48.130;-1.696;2024-03-23T08:46:35;9.98;;;2.70;;
17173;SDS011;8702;48.130;-1.696;2024-03-23T08:49:01;11.75;;;3.00;;
17173;SDS011;8702;48.130;-1.696;2024-03-23T08:51:28;13.43;;;3.00;;
17173;SDS011;8702;48.130;-1.696;2024-03-23T08:53:54;11.43;;;3.22;;
17173;SDS011;8702;48.130;-1.696;2024-03-23T08:56:21;11.05;;;2.88;;
17173;SDS011;8702;48.130;-1.696;2024-03-23T08:58:48;14.05;;;3.33;;
17173;SDS011;8702;48.130;-1.696;2024-03-23T09:01:15;14.13;;;3.45;;
17173;SDS011;8702;48.130;-1.696;2024-03-23T09:03:41;12.03;;;3.40;;
17173;SDS011;8702;48.130;-1.696;2024-03-23T09:06:08;12.05;;;3.20;;
17173;SDS011;8702;48.130;-1.696;2024-03-23T09:08:35;12.52;;;2.97;;
17173;SDS011;8702;48.130;-1.696;2024-03-23T09:11:03;9.68;;;3.08;;
17173;SDS011;8702;48.130;-1.696;2024-03-23T09:13:30;15.27;;;3.10;;
17173;SDS011;8702;48.130;-1.696;2024-03-23T09:15:59;12.80;;;3.33;;
17173;SDS011;8702;48.130;-1.696;2024-03-23T09:18:25;15.20;;;3.70;;
17173;SDS011;8702;48.130;-1.696;2024-03-23T09:20:52;14.32;;;3.22;;
17173;SDS011;8702;48.130;-1.696;2024-03-23T09:23:18;14.67;;;3.33;;
17173;SDS011;8702;48.130;-1.696;2024-03-23T09:25:45;17.70;;;4.17;;
17173;SDS011;8702;48.130;-1.696;2024-03-23T09:28:11;14.83;;;3.53;;
17173;SDS011;8702;48.130;-1.696;2024-03-23T09:30:37;14.40;;;3.70;;
17173;SDS011;8702;48.130;-1.696;2024-03-23T09:33:08;13.73;;;3.30;;
17173;SDS011;8702;48.130;-1.696;2024-03-23T09:35:36;15.25;;;3.72;;
17173;SDS011;8702;48.130;-1.696;2024-03-23T09:38:02;16.58;;;3.60;;
17173;SDS011;8702;48.130;-1.696;2024-03-23T09:40:29;13.87;;;3.77;;
17173;SDS011;8702;48.130;-1.696;2024-03-23T09:42:56;11.55;;;3.33;;
17173;SDS011;8702;48.130;-1.696;2024-03-23T09:45:26;13.30;;;3.07;;
17173;SDS011;8702;48.130;-1.696;2024-03-23T09:47:53;14.50;;;2.90;;
17173;SDS011;8702;48.130;-1.696;2024-03-23T09:50:22;10.80;;;3.42;;
17173;SDS011;8702;48.130;-1.696;2024-03-23T09:52:48;12.20;;;3.50;;
17173;SDS011;8702;48.130;-1.696;2024-03-23T09:55:15;13.27;;;3.22;;
17173;SDS011;8702;48.130;-1.696;2024-03-23T09:57:41;12.48;;;3.47;;
17173;SDS011;8702;48.130;-1.696;2024-03-23T10:00:08;11.55;;;3.05;;
17173;SDS011;8702;48.130;-1.696;2024-03-23T10:02:35;15.70;;;3.40;;
17173;SDS011;8702;48.130;-1.696;2024-03-23T10:05:02;15.97;;;3.73;;
17173;SDS011;8702;48.130;-1.696;2024-03-23T10:07:46;13.17;;;3.30;;
17173;SDS011;8702;48.130;-1.696;2024-03-23T10:10:13;12.95;;;3.40;;
17173;SDS011;8702;48.130;-1.696;2024-03-23T10:12:43;15.68;;;3.55;;
17173;SDS011;8702;48.130;-1.696;2024-03-23T10:15:15;12.27;;;3.47;;
17173;SDS011;8702;48.130;-1.696;2024-03-23T10:17:44;16.03;;;3.93;;
17173;SDS011;8702;48.130;-1.696;2024-03-23T10:20:11;14.50;;;3.53;;
17173;SDS011;8702;48.130;-1.696;2024-03-23T10:22:37;11.52;;;3.33;;
17173;SDS011;8702;48.130;-1.696;2024-03-23T10:25:09;12.68;;;3.22;;
17173;SDS011;8702;48.130;-1.696;2024-03-23T10:27:36;12.93;;;3.30;;
17173;SDS011;8702;48.130;-1.696;2024-03-23T10:30:07;11.70;;;3.10;;
17173;SDS011;8702;48.130;-1.696;2024-03-23T10:32:34;11.23;;;3.05;;
17173;SDS011;8702;48.130;-1.696;2024-03-23T10:35:13;12.50;;;3.37;;
17173;SDS011;8702;48.130;-1.696;2024-03-23T10:37:40;11.50;;;3.30;;
17173;SDS011;8702;48.130;-1.696;2024-03-23T10:40:11;10.40;;;3.03;;
17173;SDS011;8702;48.130;-1.696;2024-03-23T10:42:38;12.67;;;3.03;;
17173;SDS011;8702;48.130;-1.696;2024-03-23T10:45:05;8.35;;;2.85;;
17173;SDS011;8702;48.130;-1.696;2024-03-23T10:47:33;10.32;;;2.65;;
17173;SDS011;8702;48.130;-1.696;2024-03-23T10:50:00;10.32;;;3.10;;
17173;SDS011;8702;48.130;-1.696;2024-03-23T10:52:27;8.67;;;2.50;;
17173;SDS011;8702;48.130;-1.696;2024-03-23T10:54:54;10.60;;;2.88;;
17173;SDS011;8702;48.130;-1.696;2024-03-23T10:57:23;9.60;;;2.83;;
17173;SDS011;8702;48.130;-1.696;2024-03-23T10:59:52;9.57;;;2.80;;
17173;SDS011;8702;48.130;-1.696;2024-03-23T11:02:19;10.00;;;2.60;;
17173;SDS011;8702;48.130;-1.696;2024-03-23T11:04:47;10.30;;;2.70;;
17173;SDS011;8702;48.130;-1.696;2024-03-23T11:07:29;11.00;;;2.70;;
17173;SDS011;8702;48.130;-1.696;2024-03-23T11:09:56;9.10;;;3.15;;
17173;SDS011;8702;48.130;-1.696;2024-03-23T11:12:27;10.63;;;2.90;;
17173;SDS011;8702;48.130;-1.696;2024-03-23T11:14:57;7.60;;;2.28;;
17173;SDS011;8702;48.130;-1.696;2024-03-23T11:17:24;9.60;;;2.55;;
17173;SDS011;8702;48.130;-1.696;2024-03-23T11:19:54;9.18;;;2.53;;
17173;SDS011;8702;48.130;-1.696;2024-03-23T11:25:15;7.15;;;2.15;;
17173;SDS011;8702;48.130;-1.696;2024-03-23T11:27:43;7.05;;;2.38;;
17173;SDS011;8702;48.130;-1.696;2024-03-23T11:30:13;9.40;;;2.33;;
17173;SDS011;8702;48.130;-1.696;2024-03-23T11:32:40;9.07;;;2.53;;
17173;SDS011;8702;48.130;-1.696;2024-03-23T11:35:07;7.38;;;1.92;;
17173;SDS011;8702;48.130;-1.696;2024-03-23T11:37:35;10.82;;;2.38;;
17173;SDS011;8702;48.130;-1.696;2024-03-23T11:40:16;8.35;;;2.17;;
17173;SDS011;8702;48.130;-1.696;2024-03-23T11:42:43;7.25;;;2.40;;
17173;SDS011;8702;48.130;-1.696;2024-03-23T11:45:11;8.48;;;2.38;;
17173;SDS011;8702;48.130;-1.696;2024-03-23T11:47:37;8.93;;;2.38;;
17173;SDS011;8702;48.130;-1.696;2024-03-23T11:50:04;9.05;;;2.33;;
17173;SDS011;8702;48.130;-1.696;2024-03-23T11:52:31;8.93;;;2.60;;
17173;SDS011;8702;48.130;-1.696;2024-03-23T11:55:04;10.98;;;2.65;;
17173;SDS011;8702;48.130;-1.696;2024-03-23T11:57:32;9.00;;;2.47;;
17173;SDS011;8702;48.130;-1.696;2024-03-23T12:00:01;10.20;;;2.60;;
17173;SDS011;8702;48.130;-1.696;2024-03-23T12:02:27;10.50;;;2.78;;
17173;SDS011;8702;48.130;-1.696;2024-03-23T12:04:54;7.43;;;2.22;;
17173;SDS011;8702;48.130;-1.696;2024-03-23T12:07:20;8.82;;;2.33;;
17173;SDS011;8702;48.130;-1.696;2024-03-23T12:10:02;8.48;;;2.50;;
17173;SDS011;8702;48.130;-1.696;2024-03-23T12:12:28;9.23;;;2.42;;
17173;SDS011;8702;48.130;-1.696;2024-03-23T12:15:03;7.45;;;2.15;;
17173;SDS011;8702;48.130;-1.696;2024-03-23T12:17:31;9.02;;;2.30;;
17173;SDS011;8702;48.130;-1.696;2024-03-23T12:19:59;9.00;;;2.40;;
17173;SDS011;8702;48.130;-1.696;2024-03-23T12:22:26;7.60;;;2.28;;
17173;SDS011;8702;48.130;-1.696;2024-03-23T12:24:54;6.50;;;2.20;;
17173;SDS011;8702;48.130;-1.696;2024-03-23T12:27:20;7.30;;;2.10;;
17173;SDS011;8702;48.130;-1.696;2024-03-23T12:29:47;7.95;;;2.38;;
17173;SDS011;8702;48.130;-1.696;2024-03-23T12:32:15;8.13;;;2.30;;
17173;SDS011;8702;48.130;-1.696;2024-03-23T12:34:43;9.88;;;2.50;;
17173;SDS011;8702;48.130;-1.696;2024-03-23T12:37:09;6.50;;;1.97;;
17173;SDS011;8702;48.130;-1.696;2024-03-23T12:39:37;8.37;;;2.40;;
17173;SDS011;8702;48.130;-1.696;2024-03-23T12:42:04;5.75;;;2.25;;
17173;SDS011;8702;48.130;-1.696;2024-03-23T12:44:31;7.95;;;2.33;;
17173;SDS011;8702;48.130;-1.696;2024-03-23T12:46:57;6.80;;;2.30;;
17173;SDS011;8702;48.130;-1.696;2024-03-23T12:49:25;8.48;;;2.50;;
17173;SDS011;8702;48.130;-1.696;2024-03-23T12:51:55;6.50;;;2.20;;
17173;SDS011;8702;48.130;-1.696;2024-03-23T12:54:23;8.13;;;2.00;;
17173;SDS011;8702;48.130;-1.696;2024-03-23T12:56:50;7.43;;;1.98;;
17173;SDS011;8702;48.130;-1.696;2024-03-23T12:59:17;6.07;;;2.07;;
17173;SDS011;8702;48.130;-1.696;2024-03-23T13:01:43;5.35;;;2.03;;
17173;SDS011;8702;48.130;-1.696;2024-03-23T13:04:10;7.95;;;1.95;;
17173;SDS011;8702;48.130;-1.696;2024-03-23T13:06:38;8.00;;;2.20;;
17173;SDS011;8702;48.130;-1.696;2024-03-23T13:09:05;6.32;;;2.00;;
17173;SDS011;8702;48.130;-1.696;2024-03-23T13:11:31;5.63;;;1.88;;
17173;SDS011;8702;48.130;-1.696;2024-03-23T13:13:58;7.35;;;2.20;;
17173;SDS011;8702;48.130;-1.696;2024-03-23T13:16:24;5.32;;;1.60;;
17173;SDS011;8702;48.130;-1.696;2024-03-23T13:18:52;5.65;;;1.75;;
17173;SDS011;8702;48.130;-1.696;2024-03-23T13:21:18;6.18;;;1.75;;
17173;SDS011;8702;48.130;-1.696;2024-03-23T13:23:47;5.05;;;1.65;;
17173;SDS011;8702;48.130;-1.696;2024-03-23T13:26:15;6.28;;;1.95;;
17173;SDS011;8702;48.130;-1.696;2024-03-23T13:28:42;7.28;;;2.05;;
17173;SDS011;8702;48.130;-1.696;2024-03-23T13:31:09;5.35;;;1.90;;
17173;SDS011;8702;48.130;-1.696;2024-03-23T13:33:36;7.07;;;2.10;;
17173;SDS011;8702;48.130;-1.696;2024-03-23T13:36:03;6.80;;;1.98;;
17173;SDS011;8702;48.130;-1.696;2024-03-23T13:38:30;4.97;;;1.58;;
17173;SDS011;8702;48.130;-1.696;2024-03-23T13:40:58;4.13;;;1.60;;
17173;SDS011;8702;48.130;-1.696;2024-03-23T13:43:26;5.15;;;1.67;;
17173;SDS011;8702;48.130;-1.696;2024-03-23T13:45:53;3.70;;;1.48;;
17173;SDS011;8702;48.130;-1.696;2024-03-23T13:48:20;6.50;;;1.70;;
17173;SDS011;8702;48.130;-1.696;2024-03-23T13:50:47;3.45;;;1.30;;
17173;SDS011;8702;48.130;-1.696;2024-03-23T13:53:14;6.53;;;1.40;;
17173;SDS011;8702;48.130;-1.696;2024-03-23T13:55:46;4.80;;;1.35;;
17173;SDS011;8702;48.130;-1.696;2024-03-23T13:58:15;4.70;;;1.60;;
17173;SDS011;8702;48.130;-1.696;2024-03-23T14:00:41;4.95;;;1.40;;
17173;SDS011;8702;48.130;-1.696;2024-03-23T14:03:09;3.65;;;1.20;;
17173;SDS011;8702;48.130;-1.696;2024-03-23T14:05:35;2.88;;;1.20;;
17173;SDS011;8702;48.130;-1.696;2024-03-23T14:08:03;6.45;;;1.45;;
17173;SDS011;8702;48.130;-1.696;2024-03-23T14:10:30;3.40;;;1.30;;
17173;SDS011;8702;48.130;-1.696;2024-03-23T14:12:57;3.57;;;1.30;;
17173;SDS011;8702;48.130;-1.696;2024-03-23T14:15:26;4.40;;;1.45;;
17173;SDS011;8702;48.130;-1.696;2024-03-23T14:17:53;4.40;;;1.30;;
17173;SDS011;8702;48.130;-1.696;2024-03-23T14:20:19;4.70;;;1.65;;
17173;SDS011;8702;48.130;-1.696;2024-03-23T14:22:47;6.18;;;1.80;;
17173;SDS011;8702;48.130;-1.696;2024-03-23T14:25:13;3.33;;;1.47;;
17173;SDS011;8702;48.130;-1.696;2024-03-23T14:27:40;5.70;;;1.70;;
17173;SDS011;8702;48.130;-1.696;2024-03-23T14:30:07;6.18;;;1.70;;
17173;SDS011;8702;48.130;-1.696;2024-03-23T14:32:36;4.95;;;1.65;;
17173;SDS011;8702;48.130;-1.696;2024-03-23T14:35:02;4.00;;;1.52;;
17173;SDS011;8702;48.130;-1.696;2024-03-23T14:37:29;3.83;;;1.77;;
17173;SDS011;8702;48.130;-1.696;2024-03-23T14:39:56;3.00;;;1.30;;
17173;SDS011;8702;48.130;-1.696;2024-03-23T14:42:23;4.13;;;1.48;;
17173;SDS011;8702;48.130;-1.696;2024-03-23T14:44:50;4.60;;;1.53;;
17173;SDS011;8702;48.130;-1.696;2024-03-23T14:47:17;5.03;;;1.42;;
17173;SDS011;8702;48.130;-1.696;2024-03-23T14:49:45;3.08;;;1.05;;
17173;SDS011;8702;48.130;-1.696;2024-03-23T14:52:15;3.55;;;1.23;;
17173;SDS011;8702;48.130;-1.696;2024-03-23T14:54:41;3.17;;;1.25;;
17173;SDS011;8702;48.130;-1.696;2024-03-23T14:57:08;3.38;;;1.40;;
17173;SDS011;8702;48.130;-1.696;2024-03-23T14:59:35;2.38;;;1.30;;
17173;SDS011;8702;48.130;-1.696;2024-03-23T15:02:03;2.28;;;1.27;;
17173;SDS011;8702;48.130;-1.696;2024-03-23T15:04:29;4.38;;;1.30;;
17173;SDS011;8702;48.130;-1.696;2024-03-23T15:06:58;2.60;;;1.20;;
17173;SDS011;8702;48.130;-1.696;2024-03-23T15:09:24;3.28;;;1.23;;
17173;SDS011;8702;48.130;-1.696;2024-03-23T15:11:51;2.93;;;1.30;;
17173;SDS011;8702;48.130;-1.696;2024-03-23T15:14:20;3.60;;;1.27;;
17173;SDS011;8702;48.130;-1.696;2024-03-23T15:16:47;3.40;;;1.30;;
17173;SDS011;8702;48.130;-1.696;2024-03-23T15:19:14;3.67;;;1.30;;
17173;SDS011;8702;48.130;-1.696;2024-03-23T15:21:42;3.65;;;1.20;;
17173;SDS011;8702;48.130;-1.696;2024-03-23T15:24:10;3.40;;;1.30;;
17173;SDS011;8702;48.130;-1.696;2024-03-23T15:26:37;3.10;;;1.20;;
17173;SDS011;8702;48.130;-1.696;2024-03-23T15:29:03;3.25;;;1.27;;
17173;SDS011;8702;48.130;-1.696;2024-03-23T15:31:36;4.95;;;1.60;;
17173;SDS011;8702;48.130;-1.696;2024-03-23T15:34:02;3.78;;;1.27;;
17173;SDS011;8702;48.130;-1.696;2024-03-23T15:36:30;5.28;;;1.58;;